createdAt,value
2022-09-06T00:01:11.967Z,100718.44
2022-09-06T00:03:40.131Z,100718.34
2022-09-06T00:06:12.791Z,100710.88
2022-09-06T00:08:40.516Z,100724.44
2022-09-06T00:11:08.528Z,100712.81
2022-09-06T00:13:36.316Z,100707.44
2022-09-06T00:16:09.441Z,100707.34
2022-09-06T00:18:38.439Z,100699.75
2022-09-06T00:21:13.322Z,100700.31
2022-09-06T00:23:40.891Z,100700.09
2022-09-06T00:26:08.496Z,100697.22
2022-09-06T00:28:36.074Z,100705.88
2022-09-06T00:31:09.623Z,100702.38
2022-09-06T00:33:38.585Z,100702.97
2022-09-06T00:36:06.418Z,100699.34
2022-09-06T00:38:33.966Z,100710.03
2022-09-06T00:41:01.476Z,100698.81
2022-09-06T00:43:29.378Z,100702.19
2022-09-06T00:45:57.261Z,100703.06
2022-09-06T00:48:25.428Z,100704.44
2022-09-06T00:50:56.276Z,100700.44
2022-09-06T00:53:24.501Z,100704.13
2022-09-06T00:55:52.110Z,100702.38
2022-09-06T00:58:19.732Z,100702.03
2022-09-06T01:00:47.350Z,100692.34
2022-09-06T01:03:15.195Z,100692.88
2022-09-06T01:05:54.330Z,100693.78
2022-09-06T01:08:31.656Z,100703.28
2022-09-06T01:11:09.881Z,100704.81
2022-09-06T01:13:44.388Z,100713.47
2022-09-06T01:16:19.179Z,100715.13
2022-09-06T01:19:15.826Z,100719.69
2022-09-06T01:21:48.734Z,100722.03
2022-09-06T01:24:43.529Z,100727.16
2022-09-06T01:27:35.534Z,100717.69
2022-09-06T01:30:07.159Z,100725.44
2022-09-06T01:32:41.605Z,100731.44
2022-09-06T01:35:16.455Z,100733.00
2022-09-06T01:37:44.128Z,100731.97
2022-09-06T01:40:11.797Z,100735.09
2022-09-06T01:42:40.393Z,100726.03
2022-09-06T01:45:12.313Z,100727.59
2022-09-06T01:47:47.046Z,100721.66
2022-09-06T01:50:40.415Z,100717.34
2022-09-06T01:53:17.934Z,100725.09
2022-09-06T01:55:49.750Z,100752.88
2022-09-06T01:58:45.338Z,100861.47
2022-09-06T02:01:21.222Z,100852.25
2022-09-06T02:03:53.543Z,100818.50
2022-09-06T02:06:23.540Z,100837.41
2022-09-06T02:08:54.421Z,100838.50
2022-09-06T02:11:23.212Z,100833.75
2022-09-06T02:13:53.332Z,100828.94
2022-09-06T02:16:24.581Z,100820.91
2022-09-06T02:18:53.804Z,100823.63
2022-09-06T02:21:24.642Z,100819.00
2022-09-06T02:23:53.310Z,100814.00
2022-09-06T02:26:23.134Z,100813.53
2022-09-06T02:28:50.868Z,100805.50
2022-09-06T02:31:22.817Z,100802.13
2022-09-06T02:33:51.933Z,100802.47
2022-09-06T02:36:20.069Z,100788.22
2022-09-06T02:38:48.063Z,100790.47
2022-09-06T02:41:16.683Z,100783.44
2022-09-06T02:43:44.325Z,100766.19
2022-09-06T02:46:12.543Z,100761.75
2022-09-06T02:48:42.071Z,100745.13
2022-09-06T02:51:10.347Z,100743.72
2022-09-06T02:53:38.300Z,100745.38
2022-09-06T02:56:06.375Z,100744.47
2022-09-06T02:58:34.137Z,100748.09
2022-09-06T03:01:02.136Z,100732.63
2022-09-06T03:03:29.841Z,100745.75
2022-09-06T03:05:59.298Z,100741.00
2022-09-06T03:08:29.413Z,100733.75
2022-09-06T03:10:57.596Z,100733.25
2022-09-06T03:13:25.470Z,100723.69
2022-09-06T03:15:53.851Z,100709.31
2022-09-06T03:18:21.664Z,100704.47
2022-09-06T03:20:50.003Z,100692.66
2022-09-06T03:23:19.039Z,100699.69
2022-09-06T03:25:46.634Z,100696.34
2022-09-06T03:28:14.646Z,100700.94
2022-09-06T03:30:45.660Z,100699.47
2022-09-06T03:33:13.302Z,100698.47
2022-09-06T03:35:41.867Z,100671.50
2022-09-06T03:38:09.485Z,100661.81
2022-09-06T03:40:38.454Z,100646.91
2022-09-06T03:43:06.132Z,100639.53
2022-09-06T03:45:33.682Z,100632.66
2022-09-06T03:48:01.254Z,100635.00
2022-09-06T03:50:28.745Z,100640.41
2022-09-06T03:52:56.218Z,100626.25
2022-09-06T03:55:23.690Z,100626.00
2022-09-06T03:57:52.540Z,100640.53
2022-09-06T04:00:20.267Z,100648.19
2022-09-06T04:02:47.813Z,100651.09
2022-09-06T04:05:16.507Z,100654.28
2022-09-06T04:07:44.229Z,100652.56
2022-09-06T04:10:11.861Z,100653.53
2022-09-06T04:12:39.365Z,100652.16
2022-09-06T04:15:09.530Z,100666.69
2022-09-06T04:17:37.066Z,100654.06
2022-09-06T04:20:05.323Z,100657.47
2022-09-06T04:22:32.810Z,100676.91
2022-09-06T04:25:01.344Z,100672.00
2022-09-06T04:27:28.829Z,100674.31
2022-09-06T04:29:56.526Z,100668.69
2022-09-06T04:32:25.477Z,100677.25
2022-09-06T04:34:53.197Z,100688.47
2022-09-06T04:37:20.705Z,100680.03
2022-09-06T04:39:48.457Z,100683.50
2022-09-06T04:42:16.548Z,100684.50
2022-09-06T04:44:44.028Z,100684.16
2022-09-06T04:47:14.743Z,100687.06
2022-09-06T04:49:43.820Z,100689.47
2022-09-06T04:52:11.606Z,100688.22
2022-09-06T04:54:39.240Z,100691.63
2022-09-06T04:57:07.027Z,100686.22
2022-09-06T04:59:34.555Z,100689.47
2022-09-06T05:02:02.138Z,100697.31
2022-09-06T05:04:29.657Z,100711.34
2022-09-06T05:07:02.990Z,100702.00
2022-09-06T05:09:30.474Z,100707.00
2022-09-06T05:11:57.984Z,100702.97
2022-09-06T05:14:25.519Z,100716.66
2022-09-06T05:16:54.291Z,100713.78
2022-09-06T05:19:21.995Z,100714.16
2022-09-06T05:21:49.558Z,100715.69
2022-09-06T05:24:18.455Z,100716.25
2022-09-06T05:26:45.941Z,100708.38
2022-09-06T05:29:13.412Z,100717.66
2022-09-06T05:31:40.965Z,100716.00
2022-09-06T05:34:08.511Z,100726.00
2022-09-06T05:36:36.047Z,100737.03
2022-09-06T05:39:03.714Z,100738.69
2022-09-06T05:41:33.701Z,100744.56
2022-09-06T05:44:01.184Z,100744.09
2022-09-06T05:46:28.658Z,100748.44
2022-09-06T05:48:58.004Z,100758.88
2022-09-06T05:51:25.613Z,100777.53
2022-09-06T05:53:53.118Z,100767.94
2022-09-06T05:56:20.617Z,100766.03
2022-09-06T05:58:49.459Z,100764.75
2022-09-06T06:01:21.435Z,100771.78
2022-09-06T06:03:52.697Z,100766.50
2022-09-06T06:06:20.598Z,100765.22
2022-09-06T06:08:48.297Z,100771.22
2022-09-06T06:11:15.910Z,100767.31
2022-09-06T06:13:43.813Z,100776.56
2022-09-06T06:16:14.271Z,100774.69
2022-09-06T06:18:41.989Z,100778.81
2022-09-06T06:21:10.996Z,100785.59
2022-09-06T06:23:38.894Z,100782.91
2022-09-06T06:26:07.238Z,100783.25
2022-09-06T06:28:35.913Z,100779.84
2022-09-06T06:31:03.515Z,100785.81
2022-09-06T06:33:32.538Z,100785.81
2022-09-06T06:36:01.208Z,100779.84
2022-09-06T06:38:32.731Z,100788.50
2022-09-06T06:41:04.524Z,100785.44
2022-09-06T06:43:37.480Z,100794.94
2022-09-06T06:46:05.154Z,100786.94
2022-09-06T06:48:34.023Z,100793.41
2022-09-06T06:51:01.520Z,100786.59
2022-09-06T06:53:29.009Z,100792.00
2022-09-06T06:55:56.510Z,100790.94
2022-09-06T06:58:24.029Z,100784.00
2022-09-06T07:00:51.626Z,100781.38
2022-09-06T07:03:19.489Z,100777.63
2022-09-06T07:08:37.060Z,100786.53
2022-09-06T07:11:05.004Z,100801.91
2022-09-06T07:13:33.860Z,100791.97
2022-09-06T07:16:09.163Z,100803.63
2022-09-06T07:18:37.664Z,100793.97
2022-09-06T07:24:10.740Z,100801.94
2022-09-06T07:26:40.172Z,100805.16
2022-09-06T07:29:08.678Z,100808.59
2022-09-06T07:34:26.153Z,100814.63
2022-09-06T07:36:54.987Z,100800.25
2022-09-06T07:39:22.859Z,100806.84
2022-09-06T07:41:50.351Z,100809.59
2022-09-06T07:44:17.850Z,100813.53
2022-09-06T07:46:45.432Z,100809.50
2022-09-06T07:49:13.289Z,100813.72
2022-09-06T07:51:40.768Z,100814.63
2022-09-06T07:56:57.119Z,100812.97
2022-09-06T07:59:24.740Z,100823.31
2022-09-06T08:01:53.248Z,100806.94
2022-09-06T08:04:20.791Z,100802.97
2022-09-06T08:09:41.073Z,100808.97
2022-09-06T08:12:09.365Z,100805.38
2022-09-06T08:14:36.991Z,100808.16
2022-09-06T08:17:04.693Z,100802.47
2022-09-06T08:19:32.240Z,100803.69
2022-09-06T08:21:59.842Z,100805.50
2022-09-06T08:24:28.289Z,100799.81
2022-09-06T08:26:57.205Z,100806.41
2022-09-06T08:29:25.911Z,100808.16
2022-09-06T08:31:53.461Z,100812.25
2022-09-06T08:34:20.997Z,100808.72
2022-09-06T08:36:48.492Z,100807.13
2022-09-06T08:39:16.739Z,100799.84
2022-09-06T08:41:50.034Z,100796.88
2022-09-06T08:47:10.213Z,100795.44
2022-09-06T08:49:39.808Z,100793.94
2022-09-06T08:52:19.228Z,100798.34
2022-09-06T08:54:50.024Z,100791.88
2022-09-06T08:57:27.523Z,100783.78
2022-09-06T09:00:01.108Z,100783.84
2022-09-06T09:02:29.502Z,100783.09
2022-09-06T09:05:01.718Z,100778.00
2022-09-06T09:07:38.772Z,100779.94
2022-09-06T09:10:09.813Z,100775.34
2022-09-06T09:12:43.679Z,100777.16
2022-09-06T09:15:15.719Z,100774.44
2022-09-06T09:17:43.558Z,100766.59
2022-09-06T09:20:11.562Z,100771.84
2022-09-06T09:22:40.135Z,100765.31
2022-09-06T09:25:09.208Z,100763.72
2022-09-06T09:27:37.301Z,100759.91
2022-09-06T09:32:56.153Z,100752.91
2022-09-06T09:35:33.006Z,100764.59
2022-09-06T09:38:08.061Z,100749.41
2022-09-06T09:40:41.800Z,100750.19
2022-09-06T09:43:12.656Z,100739.03
2022-09-06T09:45:40.133Z,100738.84
2022-09-06T09:48:26.942Z,100741.31
2022-09-06T09:50:55.286Z,100734.50
2022-09-06T09:53:24.816Z,100730.16
2022-09-06T09:55:57.359Z,100730.44
2022-09-06T09:58:33.936Z,100730.13
2022-09-06T10:01:18.762Z,100720.06
2022-09-06T10:09:33.318Z,100717.63
2022-09-06T10:12:01.596Z,100717.09
2022-09-06T10:14:31.408Z,100709.97
2022-09-06T10:17:00.400Z,100702.63
2022-09-06T10:19:39.794Z,100703.41
2022-09-06T10:22:15.146Z,100704.97
2022-09-06T10:24:56.220Z,100703.59
2022-09-06T10:27:26.975Z,100704.16
2022-09-06T10:29:58.316Z,100697.31
2022-09-06T10:32:35.483Z,100698.66
2022-09-06T10:35:28.275Z,100702.38
2022-09-06T10:38:14.238Z,100691.19
2022-09-06T10:40:48.093Z,100682.66
2022-09-06T10:43:19.770Z,100687.50
2022-09-06T10:45:55.623Z,100685.59
2022-09-06T10:48:28.108Z,100688.22
2022-09-06T10:50:59.505Z,100684.63
2022-09-06T10:53:41.840Z,100691.50
2022-09-06T10:56:12.391Z,100686.00
2022-09-06T11:01:37.680Z,100679.53
2022-09-06T11:04:12.734Z,100677.13
2022-09-06T11:06:46.196Z,100677.94
2022-09-06T11:09:17.927Z,100668.13
2022-09-06T11:11:47.052Z,100668.59
2022-09-06T11:14:15.405Z,100670.72
2022-09-06T11:16:47.277Z,100662.28
2022-09-06T11:19:19.078Z,100671.19
2022-09-06T11:22:21.781Z,100662.03
2022-09-06T11:25:09.255Z,100664.66
2022-09-06T11:27:38.822Z,100654.72
2022-09-06T11:30:07.434Z,100654.28
2022-09-06T11:32:38.671Z,100655.78
2022-09-06T11:35:10.020Z,100652.22
2022-09-06T11:37:39.583Z,100650.97
2022-09-06T11:40:31.332Z,100643.38
2022-09-06T11:43:17.539Z,100635.13
2022-09-06T11:45:50.132Z,100645.81
2022-09-06T11:48:50.481Z,100640.50
2022-09-06T11:51:36.246Z,100644.00
2022-09-06T11:54:18.432Z,100637.13
2022-09-06T11:56:54.517Z,100644.81
2022-09-06T11:59:31.360Z,100633.16
2022-09-06T12:02:03.395Z,100633.38
2022-09-06T12:05:10.053Z,100631.22
2022-09-06T12:07:38.518Z,100629.44
2022-09-06T12:10:42.901Z,100635.56
2022-09-06T12:13:42.961Z,100621.22
2022-09-06T12:16:12.140Z,100626.09
2022-09-06T12:18:59.359Z,100622.84
2022-09-06T12:21:39.297Z,100620.63
2022-09-06T12:24:08.728Z,100624.69
2022-09-06T12:26:51.866Z,100617.94
2022-09-06T12:29:26.793Z,100615.72
2022-09-06T12:31:55.645Z,100607.22
2022-09-06T12:34:25.862Z,100602.91
2022-09-06T12:36:58.751Z,100602.00
2022-09-06T12:39:26.643Z,100593.84
2022-09-06T12:41:56.896Z,100602.16
2022-09-06T12:44:32.317Z,100599.84
2022-09-06T12:47:04.633Z,100599.66
2022-09-06T12:49:32.486Z,100599.34
2022-09-06T12:52:11.830Z,100597.28
2022-09-06T12:54:47.561Z,100590.50
2022-09-06T12:57:19.273Z,100587.16
2022-09-06T12:59:55.819Z,100581.31
2022-09-06T13:02:28.974Z,100581.53
2022-09-06T13:05:02.309Z,100580.91
2022-09-06T13:07:31.599Z,100572.09
2022-09-06T13:09:59.402Z,100571.47
2022-09-06T13:12:29.586Z,100570.34
2022-09-06T13:15:00.937Z,100559.28
2022-09-06T13:17:30.383Z,100552.28
2022-09-06T13:19:59.859Z,100557.56
2022-09-06T13:22:45.475Z,100555.50
2022-09-06T13:25:20.836Z,100549.41
2022-09-06T13:27:50.678Z,100545.25
2022-09-06T13:30:33.999Z,100541.28
2022-09-06T13:33:01.900Z,100541.69
2022-09-06T13:35:31.622Z,100550.69
2022-09-06T13:38:21.921Z,100550.22
2022-09-06T13:41:10.982Z,100542.16
2022-09-06T13:43:44.905Z,100555.88
2022-09-06T13:46:13.858Z,100544.41
2022-09-06T13:48:42.871Z,100539.13
2022-09-06T13:51:11.029Z,100537.81
2022-09-06T13:53:38.526Z,100537.09
2022-09-06T13:56:08.715Z,100529.22
2022-09-06T13:58:36.731Z,100532.19
2022-09-06T14:01:08.421Z,100528.03
2022-09-06T14:03:39.115Z,100517.72
2022-09-06T14:06:07.693Z,100521.00
2022-09-06T14:09:02.923Z,100517.13
2022-09-06T14:11:24.141Z,100515.59
2022-09-06T14:13:51.601Z,100517.94
2022-09-06T14:16:19.185Z,100512.53
2022-09-06T14:18:48.065Z,100515.50
2022-09-06T14:21:15.537Z,100504.53
2022-09-06T14:23:43.013Z,100509.41
2022-09-06T14:26:11.930Z,100504.63
2022-09-06T14:28:39.438Z,100508.25
2022-09-06T14:31:13.563Z,100508.25
2022-09-06T14:33:41.084Z,100505.63
2022-09-06T14:36:11.852Z,100509.84
2022-09-06T14:38:40.029Z,100496.81
2022-09-06T14:41:08.790Z,100496.44
2022-09-06T14:43:36.812Z,100487.63
2022-09-06T14:46:06.056Z,100478.88
2022-09-06T14:48:33.930Z,100478.25
2022-09-06T14:51:08.792Z,100463.03
2022-09-06T14:53:41.123Z,100469.66
2022-09-06T14:56:09.008Z,100468.59
2022-09-06T14:58:38.629Z,100463.63
2022-09-06T15:01:11.621Z,100458.13
2022-09-06T15:03:40.601Z,100456.03
2022-09-06T15:06:09.112Z,100446.00
2022-09-06T15:08:37.705Z,100452.59
2022-09-06T15:11:08.195Z,100447.97
2022-09-06T15:13:36.900Z,100443.84
2022-09-06T15:16:05.121Z,100446.56
2022-09-06T15:18:33.112Z,100439.94
2022-09-06T15:21:09.670Z,100435.31
2022-09-06T15:23:37.435Z,100435.50
2022-09-06T15:26:07.702Z,100447.19
2022-09-06T15:28:35.728Z,100438.53
2022-09-06T15:31:03.342Z,100446.72
2022-09-06T15:33:30.930Z,100437.81
2022-09-06T15:35:58.630Z,100442.41
2022-09-06T15:38:26.156Z,100434.56
2022-09-06T15:40:53.617Z,100445.22
2022-09-06T15:43:22.531Z,100447.81
2022-09-06T15:45:51.634Z,100444.03
2022-09-06T15:48:19.428Z,100439.78
2022-09-06T15:50:51.647Z,100439.06
2022-09-06T15:53:19.561Z,100439.63
2022-09-06T15:56:00.543Z,100434.81
2022-09-06T15:58:29.777Z,100443.19
2022-09-06T16:01:02.002Z,100444.91
2022-09-06T16:03:29.612Z,100438.44
2022-09-06T16:08:53.308Z,100439.88
2022-09-06T16:11:20.913Z,100449.03
2022-09-06T16:13:50.105Z,100462.03
2022-09-06T16:16:18.258Z,100470.88
2022-09-06T16:18:47.783Z,100472.88
2022-09-06T16:21:17.868Z,100476.22
2022-09-06T16:23:49.979Z,100476.34
2022-09-06T16:26:21.370Z,100471.75
2022-09-06T16:28:51.429Z,100474.91
2022-09-06T16:31:20.603Z,100487.66
2022-09-06T16:33:48.839Z,100489.44
2022-09-06T16:36:17.555Z,100495.91
2022-09-06T16:38:45.762Z,100497.25
2022-09-06T16:41:15.550Z,100485.41
2022-09-06T16:43:43.631Z,100489.91
2022-09-06T16:46:13.368Z,100493.75
2022-09-06T16:48:41.513Z,100504.94
2022-09-06T16:51:11.071Z,100511.25
2022-09-06T16:53:40.409Z,100533.16
2022-09-06T16:56:08.898Z,100532.09
2022-09-06T16:58:36.746Z,100541.16
2022-09-06T17:01:05.656Z,100537.41
2022-09-06T17:03:45.417Z,100548.53
2022-09-06T17:06:13.195Z,100560.28
2022-09-06T17:08:40.851Z,100567.63
2022-09-06T17:11:10.225Z,100586.09
2022-09-06T17:13:38.663Z,100593.41
2022-09-06T17:16:24.458Z,100603.50
2022-09-06T17:18:54.362Z,100609.94
2022-09-06T17:21:22.595Z,100619.13
2022-09-06T17:23:50.761Z,100621.84
2022-09-06T17:26:19.572Z,100632.13
2022-09-06T17:28:47.245Z,100636.38
2022-09-06T17:31:15.070Z,100648.28
2022-09-06T17:33:47.304Z,100644.53
2022-09-06T17:36:18.168Z,100638.91
2022-09-06T17:38:52.719Z,100651.28
2022-09-06T17:41:23.104Z,100669.94
2022-09-06T17:43:50.814Z,100682.41
2022-09-06T17:46:28.477Z,100666.91
2022-09-06T17:48:56.416Z,100651.59
2022-09-06T17:51:26.495Z,100644.19
2022-09-06T17:53:54.561Z,100648.78
2022-09-06T17:56:22.631Z,100635.47
2022-09-06T17:58:55.050Z,100627.25
2022-09-06T18:01:24.214Z,100605.38
2022-09-06T18:03:52.646Z,100593.03
2022-09-06T18:06:25.700Z,100593.03
2022-09-06T18:08:56.902Z,100583.53
2022-09-06T18:11:26.532Z,100578.44
2022-09-06T18:13:56.926Z,100572.28
2022-09-06T18:16:36.711Z,100568.47
2022-09-06T18:19:06.350Z,100569.47
2022-09-06T18:21:38.838Z,100561.47
2022-09-06T18:24:14.034Z,100561.13
2022-09-06T18:26:43.075Z,100552.41
2022-09-06T18:29:16.957Z,100546.28
2022-09-06T18:31:47.327Z,100547.53
2022-09-06T18:34:45.125Z,100538.81
2022-09-06T18:37:18.470Z,100526.91
2022-09-06T18:40:44.370Z,100514.56
2022-09-06T18:43:29.862Z,100486.41
2022-09-06T18:46:04.317Z,100460.69
2022-09-06T18:48:36.906Z,100462.69
2022-09-06T18:51:30.617Z,100465.50
2022-09-06T18:53:59.561Z,100465.94
2022-09-06T18:56:29.170Z,100461.47
2022-09-06T18:59:06.580Z,100460.75
2022-09-06T19:01:37.015Z,100464.09
2022-09-06T19:04:06.627Z,100455.38
2022-09-06T19:06:36.074Z,100465.75
2022-09-06T19:09:06.852Z,100457.44
2022-09-06T19:11:53.154Z,100454.00
2022-09-06T19:14:21.912Z,100458.19
2022-09-06T19:16:57.584Z,100458.03
2022-09-06T19:19:28.726Z,100449.91
2022-09-06T19:22:05.616Z,100453.53
2022-09-06T19:24:35.890Z,100451.28
2022-09-06T19:27:05.773Z,100450.22
2022-09-06T19:29:33.726Z,100446.66
2022-09-06T19:32:01.852Z,100452.06
2022-09-06T19:34:32.584Z,100442.59
2022-09-06T19:37:00.334Z,100447.75
2022-09-06T19:39:34.869Z,100437.41
2022-09-06T19:42:14.381Z,100436.66
2022-09-06T19:44:42.325Z,100431.16
2022-09-06T19:47:12.496Z,100425.66
2022-09-06T19:49:42.971Z,100416.66
2022-09-06T19:52:26.300Z,100418.78
2022-09-06T19:54:54.016Z,100415.34
2022-09-06T19:57:23.200Z,100415.94
2022-09-06T19:59:50.796Z,100410.03
2022-09-06T20:02:21.293Z,100410.25
2022-09-06T20:04:49.126Z,100405.22
2022-09-06T20:07:16.934Z,100413.22
2022-09-06T20:09:47.520Z,100412.25
2022-09-06T20:12:17.235Z,100413.63
2022-09-06T20:14:46.394Z,100411.66
2022-09-06T20:17:32.931Z,100417.03
2022-09-06T20:20:01.853Z,100401.34
2022-09-06T20:22:29.465Z,100406.59
2022-09-06T20:24:57.319Z,100408.63
2022-09-06T20:27:27.477Z,100413.47
2022-09-06T20:29:56.474Z,100413.25
2022-09-06T20:32:24.073Z,100418.22
2022-09-06T20:34:53.193Z,100411.00
2022-09-06T20:37:21.774Z,100416.06
2022-09-06T20:39:49.482Z,100415.13
2022-09-06T20:42:17.279Z,100411.97
2022-09-06T20:44:45.625Z,100412.38
2022-09-06T20:47:14.678Z,100413.56
2022-09-06T20:49:42.609Z,100416.16
2022-09-06T20:52:10.307Z,100418.69
2022-09-06T20:54:38.606Z,100418.13
2022-09-06T20:57:06.558Z,100411.00
2022-09-06T20:59:34.630Z,100418.94
2022-09-06T21:02:02.703Z,100417.72
2022-09-06T21:04:43.689Z,100418.03
2022-09-06T21:07:11.463Z,100410.03
2022-09-06T21:09:42.566Z,100418.47
2022-09-06T21:12:10.157Z,100415.75
2022-09-06T21:14:37.761Z,100421.97
2022-09-06T21:17:05.467Z,100424.59
2022-09-06T21:19:41.751Z,100429.69
2022-09-06T21:22:11.388Z,100428.63
2022-09-06T21:25:11.114Z,100434.94
2022-09-06T21:28:03.281Z,100428.13
2022-09-06T21:30:51.232Z,100431.16
2022-09-06T21:33:31.093Z,100429.38
2022-09-06T21:36:08.277Z,100422.03
2022-09-06T21:38:39.051Z,100431.81
2022-09-06T21:41:16.341Z,100421.00
2022-09-06T21:43:49.288Z,100421.69
2022-09-06T21:46:32.592Z,100428.06
2022-09-06T21:49:17.163Z,100414.22
2022-09-06T21:51:46.706Z,100424.47
2022-09-06T21:54:17.128Z,100420.56
2022-09-06T21:56:55.352Z,100430.91
2022-09-06T21:59:29.164Z,100413.97
2022-09-06T22:02:12.551Z,100425.66
2022-09-06T22:04:57.640Z,100421.50
2022-09-06T22:07:41.604Z,100421.13
2022-09-06T22:10:18.007Z,100422.03
2022-09-06T22:15:38.851Z,100417.97
2022-09-06T22:18:54.773Z,100405.56
2022-09-06T22:21:33.995Z,100411.38
2022-09-06T22:24:14.331Z,100416.69
2022-09-06T22:26:42.631Z,100417.00
2022-09-06T22:29:12.138Z,100421.97
2022-09-06T22:31:40.642Z,100416.81
2022-09-06T22:34:08.727Z,100415.53
2022-09-06T22:36:38.233Z,100408.66
2022-09-06T22:39:06.263Z,100404.28
2022-09-06T22:41:34.889Z,100403.81
2022-09-06T22:44:03.123Z,100398.31
2022-09-06T22:46:30.861Z,100413.06
2022-09-06T22:48:58.584Z,100408.66
2022-09-06T22:51:27.216Z,100408.34
2022-09-06T22:53:56.160Z,100393.50
2022-09-06T22:56:25.149Z,100386.22
2022-09-06T22:58:52.711Z,100386.81
2022-09-06T23:01:20.439Z,100387.44
2022-09-06T23:03:48.086Z,100378.53
2022-09-06T23:06:15.889Z,100380.78
2022-09-06T23:08:43.974Z,100380.78
2022-09-06T23:11:15.759Z,100389.09
2022-09-06T23:13:44.164Z,100406.25
2022-09-06T23:16:14.188Z,100408.00
2022-09-06T23:18:41.845Z,100412.94
2022-09-06T23:21:10.923Z,100411.63
2022-09-06T23:23:39.199Z,100419.72
2022-09-06T23:26:08.181Z,100416.25
2022-09-06T23:28:37.582Z,100412.38
2022-09-06T23:31:05.884Z,100411.00
2022-09-06T23:33:35.040Z,100411.56
2022-09-06T23:36:02.821Z,100412.72
2022-09-06T23:38:30.490Z,100404.19
2022-09-06T23:40:58.329Z,100401.69
2022-09-06T23:43:25.879Z,100403.13
2022-09-06T23:45:54.924Z,100409.78
2022-09-06T23:48:22.698Z,100405.31
2022-09-06T23:50:50.408Z,100403.69
2022-09-06T23:53:19.035Z,100406.38
2022-09-06T23:55:46.862Z,100414.34
2022-09-06T23:58:14.393Z,100421.28
